Terminal Aerodrome Forecast
Issued by NWS Grand Forks, ND

Home | Current Version | Previous Version | Text Only | Print | Product List | Glossary On
Versions: 1 2 3 4 5 6 7 8 9 10 11 12 13 14 15 16 17 18 19 20 21 22
000
FTUS43 KFGF 012300
TAFFAR
TAF
KFAR 012323Z 0200/0224 03008KT P6SM VCSH BKN060
     FM020100 01007KT P6SM SCT090
     FM020700 24006KT P6SM SKC
     FM021800 23012KT P6SM BKN070=

USA.gov is the U.S. government's official web portal to all federal, state and local government web resources and services.